<?xml version="1.0" encoding="UTF-8" standalone="no" ?>
<gpx xmlns="http://www.topografix.com/GPX/1/1" xmlns:xsi="http://www.w3.org/2001/XMLSchema-instance" xsi:schemaLocation="http://www.topografix.com/GPX/1/1 http://www.topografix.com/GPX/1/1/gpx.xsd" version="1.1" creator="VisuGPX - https://www.visugpx.com">
  <metadata>
    <name>Dizimieux Longes 15.7kms 600m</name>
    <desc><![CDATA[callardin.free.fr

]]></desc>
  </metadata>
  <trk>
    <name><![CDATA[Dizimieux Longes 15.7kms 600m]]></name>
    <cmt><![CDATA[callardin.free.fr]]></cmt>
    <trkseg>
      <trkpt lat="45.4793" lon="4.64709">
        <ele>420.75659179688</ele>
        <time>2018-10-05T14:00:50Z</time>
      </trkpt>
      <trkpt lat="45.47927" lon="4.64717">
        <ele>420.79232788086</ele>
        <time>2018-10-05T14:00:50Z</time>
      </trkpt>
      <trkpt lat="45.47918" lon="4.64712">
        <ele>420.48498535156</ele>
        <time>2018-10-05T14:00:52Z</time>
      </trkpt>
      <trkpt lat="45.47912" lon="4.6471">
        <ele>420.83682250977</ele>
        <time>2018-10-05T14:00:55Z</time>
      </trkpt>
      <trkpt lat="45.47915" lon="4.64718">
        <ele>421.41061401367</ele>
        <time>2018-10-05T14:00:57Z</time>
      </trkpt>
      <trkpt lat="45.47921" lon="4.64728">
        <ele>422.20983886719</ele>
        <time>2018-10-05T14:00:59Z</time>
      </trkpt>
      <trkpt lat="45.47925" lon="4.64739">
        <ele>423.08551025391</ele>
        <time>2018-10-05T14:01:01Z</time>
      </trkpt>
      <trkpt lat="45.47929" lon="4.64772">
        <ele>426.25262451172</ele>
        <time>2018-10-05T14:01:03Z</time>
      </trkpt>
      <trkpt lat="45.47935" lon="4.64828">
        <ele>434.15798950195</ele>
        <time>2018-10-05T14:01:09Z</time>
      </trkpt>
      <trkpt lat="45.4794" lon="4.64866">
        <ele>437.64901733398</ele>
        <time>2018-10-05T14:01:20Z</time>
      </trkpt>
      <trkpt lat="45.47917" lon="4.64842">
        <ele>443.78115844727</ele>
        <time>2018-10-05T14:01:27Z</time>
      </trkpt>
      <trkpt lat="45.47891" lon="4.64813">
        <ele>443.13293457031</ele>
        <time>2018-10-05T14:01:35Z</time>
      </trkpt>
      <trkpt lat="45.47889" lon="4.64812">
        <ele>442.75271606445</ele>
        <time>2018-10-05T14:01:44Z</time>
      </trkpt>
      <trkpt lat="45.47888" lon="4.64825">
        <ele>444.44537353516</ele>
        <time>2018-10-05T14:01:45Z</time>
      </trkpt>
      <trkpt lat="45.47887" lon="4.64827">
        <ele>444.59396362305</ele>
        <time>2018-10-05T14:01:47Z</time>
      </trkpt>
      <trkpt lat="45.47881" lon="4.64844">
        <ele>446.35214233398</ele>
        <time>2018-10-05T14:01:47Z</time>
      </trkpt>
      <trkpt lat="45.47867" lon="4.64866">
        <ele>448.03536987305</ele>
        <time>2018-10-05T14:01:51Z</time>
      </trkpt>
      <trkpt lat="45.47862" lon="4.64873">
        <ele>448.69595336914</ele>
        <time>2018-10-05T14:01:57Z</time>
      </trkpt>
      <trkpt lat="45.47862" lon="4.64873">
        <ele>448.69595336914</ele>
        <time>2018-10-05T14:01:59Z</time>
      </trkpt>
      <trkpt lat="45.47834" lon="4.64893">
        <ele>448.81018066406</ele>
        <time>2018-10-05T14:01:59Z</time>
      </trkpt>
      <trkpt lat="45.47825" lon="4.64896">
        <ele>448.34991455078</ele>
        <time>2018-10-05T14:02:07Z</time>
      </trkpt>
      <trkpt lat="45.47822" lon="4.649">
        <ele>448.77899169922</ele>
        <time>2018-10-05T14:02:09Z</time>
      </trkpt>
      <trkpt lat="45.47825" lon="4.64927">
        <ele>455.43957519531</ele>
        <time>2018-10-05T14:02:10Z</time>
      </trkpt>
      <trkpt lat="45.47828" lon="4.64977">
        <ele>464.24865722656</ele>
        <time>2018-10-05T14:02:15Z</time>
      </trkpt>
      <trkpt lat="45.4784" lon="4.65049">
        <ele>473.6711730957</ele>
        <time>2018-10-05T14:02:24Z</time>
      </trkpt>
      <trkpt lat="45.47838" lon="4.65125">
        <ele>481.92190551758</ele>
        <time>2018-10-05T14:02:38Z</time>
      </trkpt>
      <trkpt lat="45.47834" lon="4.65198">
        <ele>489.44735717773</ele>
        <time>2018-10-05T14:02:52Z</time>
      </trkpt>
      <trkpt lat="45.47826" lon="4.65336">
        <ele>505.85989379883</ele>
        <time>2018-10-05T14:03:06Z</time>
      </trkpt>
      <trkpt lat="45.4782" lon="4.65373">
        <ele>509.88198852539</ele>
        <time>2018-10-05T14:03:32Z</time>
      </trkpt>
      <trkpt lat="45.4782" lon="4.65373">
        <ele>509.88198852539</ele>
        <time>2018-10-05T14:03:39Z</time>
      </trkpt>
      <trkpt lat="45.47811" lon="4.65445">
        <ele>521.52935791016</ele>
        <time>2018-10-05T14:03:39Z</time>
      </trkpt>
      <trkpt lat="45.47806" lon="4.65473">
        <ele>523.75512695312</ele>
        <time>2018-10-05T14:03:53Z</time>
      </trkpt>
      <trkpt lat="45.47804" lon="4.65488">
        <ele>524.57470703125</ele>
        <time>2018-10-05T14:03:58Z</time>
      </trkpt>
      <trkpt lat="45.4779" lon="4.65506">
        <ele>523.70843505859</ele>
        <time>2018-10-05T14:04:01Z</time>
      </trkpt>
      <trkpt lat="45.47779" lon="4.65531">
        <ele>524.03894042969</ele>
        <time>2018-10-05T14:04:06Z</time>
      </trkpt>
      <trkpt lat="45.47745" lon="4.65603">
        <ele>522.56414794922</ele>
        <time>2018-10-05T14:04:12Z</time>
      </trkpt>
      <trkpt lat="45.47699" lon="4.65688">
        <ele>521.77807617188</ele>
        <time>2018-10-05T14:04:28Z</time>
      </trkpt>
      <trkpt lat="45.47686" lon="4.65718">
        <ele>519.18920898438</ele>
        <time>2018-10-05T14:04:48Z</time>
      </trkpt>
      <trkpt lat="45.47682" lon="4.65737">
        <ele>517.98291015625</ele>
        <time>2018-10-05T14:04:55Z</time>
      </trkpt>
      <trkpt lat="45.47678" lon="4.65804">
        <ele>519.26843261719</ele>
        <time>2018-10-05T14:04:59Z</time>
      </trkpt>
      <trkpt lat="45.47668" lon="4.65843">
        <ele>517.84613037109</ele>
        <time>2018-10-05T14:05:12Z</time>
      </trkpt>
      <trkpt lat="45.47651" lon="4.65879">
        <ele>515.55682373047</ele>
        <time>2018-10-05T14:05:20Z</time>
      </trkpt>
      <trkpt lat="45.47647" lon="4.65884">
        <ele>515.58276367188</ele>
        <time>2018-10-05T14:05:28Z</time>
      </trkpt>
      <trkpt lat="45.47641" lon="4.65885">
        <ele>515.71783447266</ele>
        <time>2018-10-05T14:05:29Z</time>
      </trkpt>
      <trkpt lat="45.47614" lon="4.65882">
        <ele>518.8798828125</ele>
        <time>2018-10-05T14:05:31Z</time>
      </trkpt>
      <trkpt lat="45.47581" lon="4.65872">
        <ele>521.10302734375</ele>
        <time>2018-10-05T14:05:38Z</time>
      </trkpt>
      <trkpt lat="45.47581" lon="4.65872">
        <ele>521.10302734375</ele>
        <time>2018-10-05T14:05:47Z</time>
      </trkpt>
      <trkpt lat="45.47577" lon="4.65871">
        <ele>521.37060546875</ele>
        <time>2018-10-05T14:05:47Z</time>
      </trkpt>
      <trkpt lat="45.47549" lon="4.65874">
        <ele>523.34014892578</ele>
        <time>2018-10-05T14:05:48Z</time>
      </trkpt>
      <trkpt lat="45.47525" lon="4.65875">
        <ele>524.91625976562</ele>
        <time>2018-10-05T14:05:56Z</time>
      </trkpt>
      <trkpt lat="45.47492" lon="4.65887">
        <ele>528.16003417969</ele>
        <time>2018-10-05T14:06:02Z</time>
      </trkpt>
      <trkpt lat="45.47476" lon="4.65899">
        <ele>528.41070556641</ele>
        <time>2018-10-05T14:06:11Z</time>
      </trkpt>
      <trkpt lat="45.47472" lon="4.65903">
        <ele>528.63745117188</ele>
        <time>2018-10-05T14:06:16Z</time>
      </trkpt>
      <trkpt lat="45.47475" lon="4.65908">
        <ele>529.60266113281</ele>
        <time>2018-10-05T14:06:17Z</time>
      </trkpt>
      <trkpt lat="45.4747" lon="4.65917">
        <ele>530.36199951172</ele>
        <time>2018-10-05T14:06:18Z</time>
      </trkpt>
      <trkpt lat="45.47468" lon="4.65921">
        <ele>530.6953125</ele>
        <time>2018-10-05T14:06:20Z</time>
      </trkpt>
      <trkpt lat="45.47459" lon="4.65954">
        <ele>533.79675292969</ele>
        <time>2018-10-05T14:06:21Z</time>
      </trkpt>
      <trkpt lat="45.47455" lon="4.65973">
        <ele>534.97576904297</ele>
        <time>2018-10-05T14:06:28Z</time>
      </trkpt>
      <trkpt lat="45.47452" lon="4.66014">
        <ele>538.67376708984</ele>
        <time>2018-10-05T14:06:32Z</time>
      </trkpt>
      <trkpt lat="45.47455" lon="4.66054">
        <ele>542.44421386719</ele>
        <time>2018-10-05T14:06:40Z</time>
      </trkpt>
      <trkpt lat="45.47466" lon="4.66089">
        <ele>546.95092773438</ele>
        <time>2018-10-05T14:06:48Z</time>
      </trkpt>
      <trkpt lat="45.47484" lon="4.66135">
        <ele>551.50555419922</ele>
        <time>2018-10-05T14:06:55Z</time>
      </trkpt>
      <trkpt lat="45.47498" lon="4.66167">
        <ele>554.87530517578</ele>
        <time>2018-10-05T14:07:05Z</time>
      </trkpt>
      <trkpt lat="45.47535" lon="4.66273">
        <ele>565.67358398438</ele>
        <time>2018-10-05T14:07:12Z</time>
      </trkpt>
      <trkpt lat="45.47546" lon="4.6629">
        <ele>569.10772705078</ele>
        <time>2018-10-05T14:07:34Z</time>
      </trkpt>
      <trkpt lat="45.47592" lon="4.66331">
        <ele>581.0068359375</ele>
        <time>2018-10-05T14:07:38Z</time>
      </trkpt>
      <trkpt lat="45.47624" lon="4.66364">
        <ele>588.02093505859</ele>
        <time>2018-10-05T14:07:52Z</time>
      </trkpt>
      <trkpt lat="45.47653" lon="4.66393">
        <ele>595.87139892578</ele>
        <time>2018-10-05T14:08:03Z</time>
      </trkpt>
      <trkpt lat="45.4769" lon="4.66449">
        <ele>614.96319580078</ele>
        <time>2018-10-05T14:08:12Z</time>
      </trkpt>
      <trkpt lat="45.47719" lon="4.66497">
        <ele>623.93395996094</ele>
        <time>2018-10-05T14:08:26Z</time>
      </trkpt>
      <trkpt lat="45.47745" lon="4.66532">
        <ele>629.74743652344</ele>
        <time>2018-10-05T14:08:38Z</time>
      </trkpt>
      <trkpt lat="45.47745" lon="4.66532">
        <ele>629.74743652344</ele>
        <time>2018-10-05T14:08:48Z</time>
      </trkpt>
      <trkpt lat="45.47772" lon="4.66565">
        <ele>635.60345458984</ele>
        <time>2018-10-05T14:08:48Z</time>
      </trkpt>
      <trkpt lat="45.47808" lon="4.66622">
        <ele>631.52410888672</ele>
        <time>2018-10-05T14:08:58Z</time>
      </trkpt>
      <trkpt lat="45.47817" lon="4.66638">
        <ele>631.12689208984</ele>
        <time>2018-10-05T14:09:12Z</time>
      </trkpt>
      <trkpt lat="45.47828" lon="4.66661">
        <ele>629.40661621094</ele>
        <time>2018-10-05T14:09:16Z</time>
      </trkpt>
      <trkpt lat="45.47838" lon="4.6669">
        <ele>626.68609619141</ele>
        <time>2018-10-05T14:09:21Z</time>
      </trkpt>
      <trkpt lat="45.4786" lon="4.66759">
        <ele>618.69458007812</ele>
        <time>2018-10-05T14:09:27Z</time>
      </trkpt>
      <trkpt lat="45.47873" lon="4.66812">
        <ele>612.37152099609</ele>
        <time>2018-10-05T14:09:41Z</time>
      </trkpt>
      <trkpt lat="45.47885" lon="4.66866">
        <ele>608.17657470703</ele>
        <time>2018-10-05T14:09:52Z</time>
      </trkpt>
      <trkpt lat="45.47895" lon="4.66878">
        <ele>605.17419433594</ele>
        <time>2018-10-05T14:10:03Z</time>
      </trkpt>
      <trkpt lat="45.47966" lon="4.66917">
        <ele>588.89678955078</ele>
        <time>2018-10-05T14:10:06Z</time>
      </trkpt>
      <trkpt lat="45.47973" lon="4.66921">
        <ele>588.48229980469</ele>
        <time>2018-10-05T14:10:26Z</time>
      </trkpt>
      <trkpt lat="45.47985" lon="4.66921">
        <ele>587.04058837891</ele>
        <time>2018-10-05T14:10:28Z</time>
      </trkpt>
      <trkpt lat="45.48017" lon="4.6692">
        <ele>581.80792236328</ele>
        <time>2018-10-05T14:10:31Z</time>
      </trkpt>
      <trkpt lat="45.48026" lon="4.66913">
        <ele>577.46423339844</ele>
        <time>2018-10-05T14:10:40Z</time>
      </trkpt>
      <trkpt lat="45.48033" lon="4.66901">
        <ele>573.52331542969</ele>
        <time>2018-10-05T14:10:43Z</time>
      </trkpt>
      <trkpt lat="45.4805" lon="4.66893">
        <ele>568.2451171875</ele>
        <time>2018-10-05T14:10:46Z</time>
      </trkpt>
      <trkpt lat="45.48061" lon="4.66883">
        <ele>564.53283691406</ele>
        <time>2018-10-05T14:10:51Z</time>
      </trkpt>
      <trkpt lat="45.48063" lon="4.66871">
        <ele>562.78460693359</ele>
        <time>2018-10-05T14:10:54Z</time>
      </trkpt>
      <trkpt lat="45.4806" lon="4.6685">
        <ele>560.44061279297</ele>
        <time>2018-10-05T14:10:56Z</time>
      </trkpt>
      <trkpt lat="45.48062" lon="4.66844">
        <ele>559.12420654297</ele>
        <time>2018-10-05T14:11:00Z</time>
      </trkpt>
      <trkpt lat="45.48083" lon="4.66846">
        <ele>555.72552490234</ele>
        <time>2018-10-05T14:11:01Z</time>
      </trkpt>
      <trkpt lat="45.48088" lon="4.66848">
        <ele>554.87963867188</ele>
        <time>2018-10-05T14:11:07Z</time>
      </trkpt>
      <trkpt lat="45.48107" lon="4.6686">
        <ele>550.24884033203</ele>
        <time>2018-10-05T14:11:08Z</time>
      </trkpt>
      <trkpt lat="45.48117" lon="4.66869">
        <ele>548.42041015625</ele>
        <time>2018-10-05T14:11:14Z</time>
      </trkpt>
      <trkpt lat="45.48145" lon="4.66899">
        <ele>542.33355712891</ele>
        <time>2018-10-05T14:11:17Z</time>
      </trkpt>
      <trkpt lat="45.48156" lon="4.66919">
        <ele>539.63763427734</ele>
        <time>2018-10-05T14:11:26Z</time>
      </trkpt>
      <trkpt lat="45.48158" lon="4.6693">
        <ele>538.67279052734</ele>
        <time>2018-10-05T14:11:31Z</time>
      </trkpt>
      <trkpt lat="45.48161" lon="4.66941">
        <ele>537.77130126953</ele>
        <time>2018-10-05T14:11:33Z</time>
      </trkpt>
      <trkpt lat="45.48161" lon="4.66941">
        <ele>537.77130126953</ele>
        <time>2018-10-05T14:11:35Z</time>
      </trkpt>
      <trkpt lat="45.48166" lon="4.66959">
        <ele>536.82098388672</ele>
        <time>2018-10-05T14:11:35Z</time>
      </trkpt>
      <trkpt lat="45.48178" lon="4.66983">
        <ele>535.66918945312</ele>
        <time>2018-10-05T14:11:39Z</time>
      </trkpt>
      <trkpt lat="45.482" lon="4.67011">
        <ele>532.88812255859</ele>
        <time>2018-10-05T14:11:45Z</time>
      </trkpt>
      <trkpt lat="45.48205" lon="4.67011">
        <ele>531.96051025391</ele>
        <time>2018-10-05T14:11:53Z</time>
      </trkpt>
      <trkpt lat="45.48206" lon="4.67011">
        <ele>531.77691650391</ele>
        <time>2018-10-05T14:11:54Z</time>
      </trkpt>
      <trkpt lat="45.4821" lon="4.67018">
        <ele>531.58953857422</ele>
        <time>2018-10-05T14:11:54Z</time>
      </trkpt>
      <trkpt lat="45.48211" lon="4.67028">
        <ele>532.00708007812</ele>
        <time>2018-10-05T14:11:56Z</time>
      </trkpt>
      <trkpt lat="45.48213" lon="4.67028">
        <ele>531.45751953125</ele>
        <time>2018-10-05T14:11:58Z</time>
      </trkpt>
      <trkpt lat="45.48219" lon="4.67035">
        <ele>530.43701171875</ele>
        <time>2018-10-05T14:11:59Z</time>
      </trkpt>
      <trkpt lat="45.48224" lon="4.67039">
        <ele>529.73669433594</ele>
        <time>2018-10-05T14:12:01Z</time>
      </trkpt>
      <trkpt lat="45.48227" lon="4.67038">
        <ele>528.56964111328</ele>
        <time>2018-10-05T14:12:03Z</time>
      </trkpt>
      <trkpt lat="45.48229" lon="4.67033">
        <ele>526.88427734375</ele>
        <time>2018-10-05T14:12:04Z</time>
      </trkpt>
      <trkpt lat="45.48221" lon="4.66995">
        <ele>524.71545410156</ele>
        <time>2018-10-05T14:12:05Z</time>
      </trkpt>
      <trkpt lat="45.48221" lon="4.66984">
        <ele>525.33612060547</ele>
        <time>2018-10-05T14:12:12Z</time>
      </trkpt>
      <trkpt lat="45.48224" lon="4.66981">
        <ele>525.04638671875</ele>
        <time>2018-10-05T14:12:14Z</time>
      </trkpt>
      <trkpt lat="45.48231" lon="4.66982">
        <ele>523.30780029297</ele>
        <time>2018-10-05T14:12:15Z</time>
      </trkpt>
      <trkpt lat="45.48262" lon="4.67006">
        <ele>517.09381103516</ele>
        <time>2018-10-05T14:12:17Z</time>
      </trkpt>
      <trkpt lat="45.48298" lon="4.67027">
        <ele>510.34414672852</ele>
        <time>2018-10-05T14:12:26Z</time>
      </trkpt>
      <trkpt lat="45.48314" lon="4.67032">
        <ele>506.79632568359</ele>
        <time>2018-10-05T14:12:36Z</time>
      </trkpt>
      <trkpt lat="45.48323" lon="4.67029">
        <ele>505.42407226562</ele>
        <time>2018-10-05T14:12:40Z</time>
      </trkpt>
      <trkpt lat="45.48335" lon="4.67018">
        <ele>503.83633422852</ele>
        <time>2018-10-05T14:12:42Z</time>
      </trkpt>
      <trkpt lat="45.48359" lon="4.66975">
        <ele>501.71762084961</ele>
        <time>2018-10-05T14:12:46Z</time>
      </trkpt>
      <trkpt lat="45.48388" lon="4.66926">
        <ele>498.78839111328</ele>
        <time>2018-10-05T14:12:56Z</time>
      </trkpt>
      <trkpt lat="45.48405" lon="4.66907">
        <ele>497.99270629883</ele>
        <time>2018-10-05T14:13:08Z</time>
      </trkpt>
      <trkpt lat="45.48462" lon="4.6685">
        <ele>496.46820068359</ele>
        <time>2018-10-05T14:13:14Z</time>
      </trkpt>
      <trkpt lat="45.48481" lon="4.66837">
        <ele>495.20681762695</ele>
        <time>2018-10-05T14:13:33Z</time>
      </trkpt>
      <trkpt lat="45.48486" lon="4.66836">
        <ele>494.78051757812</ele>
        <time>2018-10-05T14:13:39Z</time>
      </trkpt>
      <trkpt lat="45.48492" lon="4.66839">
        <ele>494.1555480957</ele>
        <time>2018-10-05T14:13:40Z</time>
      </trkpt>
      <trkpt lat="45.48498" lon="4.66845">
        <ele>493.43151855469</ele>
        <time>2018-10-05T14:13:42Z</time>
      </trkpt>
      <trkpt lat="45.48509" lon="4.66865">
        <ele>491.13558959961</ele>
        <time>2018-10-05T14:13:44Z</time>
      </trkpt>
      <trkpt lat="45.48515" lon="4.66872">
        <ele>491.4909362793</ele>
        <time>2018-10-05T14:13:49Z</time>
      </trkpt>
      <trkpt lat="45.4852" lon="4.66871">
        <ele>491.6975402832</ele>
        <time>2018-10-05T14:13:51Z</time>
      </trkpt>
      <trkpt lat="45.48526" lon="4.66866">
        <ele>492.39889526367</ele>
        <time>2018-10-05T14:13:52Z</time>
      </trkpt>
      <trkpt lat="45.48546" lon="4.66815">
        <ele>494.84536743164</ele>
        <time>2018-10-05T14:13:54Z</time>
      </trkpt>
      <trkpt lat="45.48554" lon="4.66796">
        <ele>494.36666870117</ele>
        <time>2018-10-05T14:14:05Z</time>
      </trkpt>
      <trkpt lat="45.48574" lon="4.6676">
        <ele>499.32543945312</ele>
        <time>2018-10-05T14:14:09Z</time>
      </trkpt>
      <trkpt lat="45.48582" lon="4.66742">
        <ele>503.00317382812</ele>
        <time>2018-10-05T14:14:18Z</time>
      </trkpt>
      <trkpt lat="45.48588" lon="4.66698">
        <ele>504.43444824219</ele>
        <time>2018-10-05T14:14:22Z</time>
      </trkpt>
      <trkpt lat="45.48594" lon="4.6663">
        <ele>506.18826293945</ele>
        <time>2018-10-05T14:14:30Z</time>
      </trkpt>
      <trkpt lat="45.48604" lon="4.66586">
        <ele>510.0478515625</ele>
        <time>2018-10-05T14:14:43Z</time>
      </trkpt>
      <trkpt lat="45.48618" lon="4.66551">
        <ele>513.85101318359</ele>
        <time>2018-10-05T14:14:52Z</time>
      </trkpt>
      <trkpt lat="45.4863" lon="4.66537">
        <ele>516.29028320312</ele>
        <time>2018-10-05T14:15:00Z</time>
      </trkpt>
      <trkpt lat="45.48642" lon="4.6653">
        <ele>519.07379150391</ele>
        <time>2018-10-05T14:15:04Z</time>
      </trkpt>
      <trkpt lat="45.48684" lon="4.66499">
        <ele>521.44592285156</ele>
        <time>2018-10-05T14:15:07Z</time>
      </trkpt>
      <trkpt lat="45.48722" lon="4.66472">
        <ele>522.12811279297</ele>
        <time>2018-10-05T14:15:20Z</time>
      </trkpt>
      <trkpt lat="45.4875" lon="4.66459">
        <ele>522.49267578125</ele>
        <time>2018-10-05T14:15:31Z</time>
      </trkpt>
      <trkpt lat="45.48795" lon="4.66452">
        <ele>525.33154296875</ele>
        <time>2018-10-05T14:15:39Z</time>
      </trkpt>
      <trkpt lat="45.48826" lon="4.66443">
        <ele>524.78289794922</ele>
        <time>2018-10-05T14:15:51Z</time>
      </trkpt>
      <trkpt lat="45.48858" lon="4.66444">
        <ele>524.63745117188</ele>
        <time>2018-10-05T14:15:59Z</time>
      </trkpt>
      <trkpt lat="45.48892" lon="4.6644">
        <ele>523.94885253906</ele>
        <time>2018-10-05T14:16:08Z</time>
      </trkpt>
      <trkpt lat="45.48897" lon="4.66437">
        <ele>523.66558837891</ele>
        <time>2018-10-05T14:16:17Z</time>
      </trkpt>
      <trkpt lat="45.48941" lon="4.66403">
        <ele>522.33477783203</ele>
        <time>2018-10-05T14:16:18Z</time>
      </trkpt>
      <trkpt lat="45.48959" lon="4.66391">
        <ele>522.29907226562</ele>
        <time>2018-10-05T14:16:31Z</time>
      </trkpt>
      <trkpt lat="45.49001" lon="4.66375">
        <ele>522.68328857422</ele>
        <time>2018-10-05T14:16:36Z</time>
      </trkpt>
      <trkpt lat="45.49044" lon="4.66364">
        <ele>521.84741210938</ele>
        <time>2018-10-05T14:16:48Z</time>
      </trkpt>
      <trkpt lat="45.49071" lon="4.66364">
        <ele>521.47900390625</ele>
        <time>2018-10-05T14:17:00Z</time>
      </trkpt>
      <trkpt lat="45.49098" lon="4.66371">
        <ele>521.80187988281</ele>
        <time>2018-10-05T14:17:07Z</time>
      </trkpt>
      <trkpt lat="45.49115" lon="4.66376">
        <ele>521.85321044922</ele>
        <time>2018-10-05T14:17:14Z</time>
      </trkpt>
      <trkpt lat="45.49115" lon="4.66376">
        <ele>521.85321044922</ele>
        <time>2018-10-05T14:17:19Z</time>
      </trkpt>
      <trkpt lat="45.49244" lon="4.66414">
        <ele>525.47442626953</ele>
        <time>2018-10-05T14:17:19Z</time>
      </trkpt>
      <trkpt lat="45.49248" lon="4.66417">
        <ele>525.16735839844</ele>
        <time>2018-10-05T14:17:54Z</time>
      </trkpt>
      <trkpt lat="45.49273" lon="4.66409">
        <ele>524.79248046875</ele>
        <time>2018-10-05T14:17:55Z</time>
      </trkpt>
      <trkpt lat="45.49298" lon="4.66397">
        <ele>526.72705078125</ele>
        <time>2018-10-05T14:18:02Z</time>
      </trkpt>
      <trkpt lat="45.49302" lon="4.66403">
        <ele>526.22094726562</ele>
        <time>2018-10-05T14:18:09Z</time>
      </trkpt>
      <trkpt lat="45.49318" lon="4.6642">
        <ele>524.29260253906</ele>
        <time>2018-10-05T14:18:11Z</time>
      </trkpt>
      <trkpt lat="45.49331" lon="4.66431">
        <ele>522.85217285156</ele>
        <time>2018-10-05T14:18:16Z</time>
      </trkpt>
      <trkpt lat="45.49388" lon="4.66462">
        <ele>515.22778320312</ele>
        <time>2018-10-05T14:18:20Z</time>
      </trkpt>
      <trkpt lat="45.49429" lon="4.66475">
        <ele>513.11431884766</ele>
        <time>2018-10-05T14:18:36Z</time>
      </trkpt>
      <trkpt lat="45.49472" lon="4.66484">
        <ele>506.11468505859</ele>
        <time>2018-10-05T14:18:47Z</time>
      </trkpt>
      <trkpt lat="45.49543" lon="4.66493">
        <ele>501.48916625977</ele>
        <time>2018-10-05T14:18:59Z</time>
      </trkpt>
      <trkpt lat="45.49597" lon="4.66498">
        <ele>495.61297607422</ele>
        <time>2018-10-05T14:19:18Z</time>
      </trkpt>
      <trkpt lat="45.4962" lon="4.66498">
        <ele>493.77407836914</ele>
        <time>2018-10-05T14:19:32Z</time>
      </trkpt>
      <trkpt lat="45.49627" lon="4.66499">
        <ele>493.73477172852</ele>
        <time>2018-10-05T14:19:38Z</time>
      </trkpt>
      <trkpt lat="45.49631" lon="4.66503">
        <ele>493.70230102539</ele>
        <time>2018-10-05T14:19:40Z</time>
      </trkpt>
      <trkpt lat="45.49635" lon="4.6652">
        <ele>494.11065673828</ele>
        <time>2018-10-05T14:19:41Z</time>
      </trkpt>
      <trkpt lat="45.49645" lon="4.66549">
        <ele>499.23364257812</ele>
        <time>2018-10-05T14:19:44Z</time>
      </trkpt>
      <trkpt lat="45.49653" lon="4.66579">
        <ele>498.44659423828</ele>
        <time>2018-10-05T14:19:50Z</time>
      </trkpt>
      <trkpt lat="45.4966" lon="4.66597">
        <ele>500.13571166992</ele>
        <time>2018-10-05T14:19:56Z</time>
      </trkpt>
      <trkpt lat="45.49672" lon="4.66614">
        <ele>501.51260375977</ele>
        <time>2018-10-05T14:20:00Z</time>
      </trkpt>
      <trkpt lat="45.49702" lon="4.66649">
        <ele>500.77334594727</ele>
        <time>2018-10-05T14:20:05Z</time>
      </trkpt>
      <trkpt lat="45.49702" lon="4.66649">
        <ele>500.77334594727</ele>
        <time>2018-10-05T14:20:15Z</time>
      </trkpt>
      <trkpt lat="45.4972" lon="4.66666">
        <ele>496.20193481445</ele>
        <time>2018-10-05T14:20:15Z</time>
      </trkpt>
      <trkpt lat="45.49734" lon="4.66676">
        <ele>494.05889892578</ele>
        <time>2018-10-05T14:20:21Z</time>
      </trkpt>
      <trkpt lat="45.49763" lon="4.66698">
        <ele>493.20104980469</ele>
        <time>2018-10-05T14:20:25Z</time>
      </trkpt>
      <trkpt lat="45.49831" lon="4.66744">
        <ele>495.11773681641</ele>
        <time>2018-10-05T14:20:34Z</time>
      </trkpt>
      <trkpt lat="45.49842" lon="4.66747">
        <ele>496.52557373047</ele>
        <time>2018-10-05T14:20:54Z</time>
      </trkpt>
      <trkpt lat="45.49886" lon="4.66745">
        <ele>498.54937744141</ele>
        <time>2018-10-05T14:20:57Z</time>
      </trkpt>
      <trkpt lat="45.49917" lon="4.66731">
        <ele>497.99743652344</ele>
        <time>2018-10-05T14:21:09Z</time>
      </trkpt>
      <trkpt lat="45.49937" lon="4.66725">
        <ele>494.69381713867</ele>
        <time>2018-10-05T14:21:18Z</time>
      </trkpt>
      <trkpt lat="45.49969" lon="4.66704">
        <ele>490.99520874023</ele>
        <time>2018-10-05T14:21:23Z</time>
      </trkpt>
      <trkpt lat="45.50003" lon="4.66661">
        <ele>487.58779907227</ele>
        <time>2018-10-05T14:21:32Z</time>
      </trkpt>
      <trkpt lat="45.50024" lon="4.66638">
        <ele>483.51904296875</ele>
        <time>2018-10-05T14:21:44Z</time>
      </trkpt>
      <trkpt lat="45.50039" lon="4.66614">
        <ele>482.1025390625</ele>
        <time>2018-10-05T14:21:51Z</time>
      </trkpt>
      <trkpt lat="45.50079" lon="4.66561">
        <ele>478.00347900391</ele>
        <time>2018-10-05T14:21:57Z</time>
      </trkpt>
      <trkpt lat="45.50102" lon="4.66537">
        <ele>476.80435180664</ele>
        <time>2018-10-05T14:22:12Z</time>
      </trkpt>
      <trkpt lat="45.50125" lon="4.66528">
        <ele>477.77984619141</ele>
        <time>2018-10-05T14:22:20Z</time>
      </trkpt>
      <trkpt lat="45.50149" lon="4.66522">
        <ele>477.35940551758</ele>
        <time>2018-10-05T14:22:26Z</time>
      </trkpt>
      <trkpt lat="45.50204" lon="4.66513">
        <ele>479.02651977539</ele>
        <time>2018-10-05T14:22:33Z</time>
      </trkpt>
      <trkpt lat="45.50249" lon="4.66505">
        <ele>481.45098876953</ele>
        <time>2018-10-05T14:22:48Z</time>
      </trkpt>
      <trkpt lat="45.50276" lon="4.66488">
        <ele>480.14096069336</ele>
        <time>2018-10-05T14:23:00Z</time>
      </trkpt>
      <trkpt lat="45.50306" lon="4.6646">
        <ele>477.32537841797</ele>
        <time>2018-10-05T14:23:08Z</time>
      </trkpt>
      <trkpt lat="45.50318" lon="4.66437">
        <ele>476.39691162109</ele>
        <time>2018-10-05T14:23:18Z</time>
      </trkpt>
      <trkpt lat="45.50332" lon="4.6641">
        <ele>474.56744384766</ele>
        <time>2018-10-05T14:23:23Z</time>
      </trkpt>
      <trkpt lat="45.50364" lon="4.66378">
        <ele>470.58517456055</ele>
        <time>2018-10-05T14:23:29Z</time>
      </trkpt>
      <trkpt lat="45.50392" lon="4.66357">
        <ele>468.79891967773</ele>
        <time>2018-10-05T14:23:39Z</time>
      </trkpt>
      <trkpt lat="45.504" lon="4.66353">
        <ele>468.20739746094</ele>
        <time>2018-10-05T14:23:47Z</time>
      </trkpt>
      <trkpt lat="45.50431" lon="4.66327">
        <ele>465.03564453125</ele>
        <time>2018-10-05T14:23:49Z</time>
      </trkpt>
      <trkpt lat="45.50446" lon="4.66309">
        <ele>464.0221862793</ele>
        <time>2018-10-05T14:23:59Z</time>
      </trkpt>
      <trkpt lat="45.50451" lon="4.66306">
        <ele>463.86596679688</ele>
        <time>2018-10-05T14:24:04Z</time>
      </trkpt>
      <trkpt lat="45.50459" lon="4.66307">
        <ele>462.96197509766</ele>
        <time>2018-10-05T14:24:05Z</time>
      </trkpt>
      <trkpt lat="45.50475" lon="4.66317">
        <ele>460.10995483398</ele>
        <time>2018-10-05T14:24:07Z</time>
      </trkpt>
      <trkpt lat="45.50544" lon="4.66368">
        <ele>451.01916503906</ele>
        <time>2018-10-05T14:24:12Z</time>
      </trkpt>
      <trkpt lat="45.50564" lon="4.66379">
        <ele>449.13562011719</ele>
        <time>2018-10-05T14:24:33Z</time>
      </trkpt>
      <trkpt lat="45.5058" lon="4.66387">
        <ele>447.5856628418</ele>
        <time>2018-10-05T14:24:39Z</time>
      </trkpt>
      <trkpt lat="45.50588" lon="4.66387">
        <ele>446.96127319336</ele>
        <time>2018-10-05T14:24:44Z</time>
      </trkpt>
      <trkpt lat="45.50588" lon="4.66387">
        <ele>446.96127319336</ele>
        <time>2018-10-05T14:24:46Z</time>
      </trkpt>
      <trkpt lat="45.50605" lon="4.66385">
        <ele>445.17242431641</ele>
        <time>2018-10-05T14:24:46Z</time>
      </trkpt>
      <trkpt lat="45.5061" lon="4.66385">
        <ele>444.77288818359</ele>
        <time>2018-10-05T14:24:51Z</time>
      </trkpt>
      <trkpt lat="45.50624" lon="4.66394">
        <ele>443.50610351562</ele>
        <time>2018-10-05T14:24:52Z</time>
      </trkpt>
      <trkpt lat="45.5064" lon="4.66407">
        <ele>442.54138183594</ele>
        <time>2018-10-05T14:24:56Z</time>
      </trkpt>
      <trkpt lat="45.50647" lon="4.66415">
        <ele>441.43292236328</ele>
        <time>2018-10-05T14:25:01Z</time>
      </trkpt>
      <trkpt lat="45.50705" lon="4.6647">
        <ele>430.75094604492</ele>
        <time>2018-10-05T14:25:03Z</time>
      </trkpt>
      <trkpt lat="45.5076" lon="4.66494">
        <ele>425.58087158203</ele>
        <time>2018-10-05T14:25:21Z</time>
      </trkpt>
      <trkpt lat="45.50852" lon="4.66545">
        <ele>409.85009765625</ele>
        <time>2018-10-05T14:25:37Z</time>
      </trkpt>
      <trkpt lat="45.50937" lon="4.66544">
        <ele>403.89785766602</ele>
        <time>2018-10-05T14:26:03Z</time>
      </trkpt>
      <trkpt lat="45.50961" lon="4.66608">
        <ele>396.14202880859</ele>
        <time>2018-10-05T14:26:26Z</time>
      </trkpt>
      <trkpt lat="45.51015" lon="4.66651">
        <ele>407.59356689453</ele>
        <time>2018-10-05T14:26:40Z</time>
      </trkpt>
      <trkpt lat="45.51054" lon="4.66668">
        <ele>411.61520385742</ele>
        <time>2018-10-05T14:26:57Z</time>
      </trkpt>
      <trkpt lat="45.51123" lon="4.66578">
        <ele>430.00646972656</ele>
        <time>2018-10-05T14:27:08Z</time>
      </trkpt>
      <trkpt lat="45.51165" lon="4.66664">
        <ele>422.42742919922</ele>
        <time>2018-10-05T14:27:33Z</time>
      </trkpt>
      <trkpt lat="45.51169" lon="4.66659">
        <ele>423.52844238281</ele>
        <time>2018-10-05T14:27:53Z</time>
      </trkpt>
      <trkpt lat="45.51179" lon="4.66669">
        <ele>424.9821472168</ele>
        <time>2018-10-05T14:27:54Z</time>
      </trkpt>
      <trkpt lat="45.51191" lon="4.66676">
        <ele>426.09045410156</ele>
        <time>2018-10-05T14:27:57Z</time>
      </trkpt>
      <trkpt lat="45.51201" lon="4.66677">
        <ele>426.96585083008</ele>
        <time>2018-10-05T14:28:00Z</time>
      </trkpt>
      <trkpt lat="45.51228" lon="4.66671">
        <ele>430.85397338867</ele>
        <time>2018-10-05T14:28:03Z</time>
      </trkpt>
      <trkpt lat="45.51243" lon="4.6667">
        <ele>432.44738769531</ele>
        <time>2018-10-05T14:28:10Z</time>
      </trkpt>
      <trkpt lat="45.51263" lon="4.66676">
        <ele>433.74786376953</ele>
        <time>2018-10-05T14:28:14Z</time>
      </trkpt>
      <trkpt lat="45.51275" lon="4.66685">
        <ele>434.54330444336</ele>
        <time>2018-10-05T14:28:19Z</time>
      </trkpt>
      <trkpt lat="45.51285" lon="4.66698">
        <ele>434.11251831055</ele>
        <time>2018-10-05T14:28:23Z</time>
      </trkpt>
      <trkpt lat="45.51296" lon="4.66712">
        <ele>433.45681762695</ele>
        <time>2018-10-05T14:28:27Z</time>
      </trkpt>
      <trkpt lat="45.51301" lon="4.66715">
        <ele>433.48440551758</ele>
        <time>2018-10-05T14:28:31Z</time>
      </trkpt>
      <trkpt lat="45.51324" lon="4.66731">
        <ele>433.73178100586</ele>
        <time>2018-10-05T14:28:32Z</time>
      </trkpt>
      <trkpt lat="45.51386" lon="4.66765">
        <ele>432.88833618164</ele>
        <time>2018-10-05T14:28:39Z</time>
      </trkpt>
      <trkpt lat="45.51415" lon="4.66784">
        <ele>431.68365478516</ele>
        <time>2018-10-05T14:28:57Z</time>
      </trkpt>
      <trkpt lat="45.51435" lon="4.66794">
        <ele>430.93240356445</ele>
        <time>2018-10-05T14:29:06Z</time>
      </trkpt>
      <trkpt lat="45.51456" lon="4.668">
        <ele>429.98916625977</ele>
        <time>2018-10-05T14:29:12Z</time>
      </trkpt>
      <trkpt lat="45.51456" lon="4.668">
        <ele>429.98916625977</ele>
        <time>2018-10-05T14:29:18Z</time>
      </trkpt>
      <trkpt lat="45.51498" lon="4.66811">
        <ele>429.5241394043</ele>
        <time>2018-10-05T14:29:18Z</time>
      </trkpt>
      <trkpt lat="45.51504" lon="4.66815">
        <ele>429.42684936523</ele>
        <time>2018-10-05T14:29:29Z</time>
      </trkpt>
      <trkpt lat="45.51509" lon="4.66817">
        <ele>429.28598022461</ele>
        <time>2018-10-05T14:29:31Z</time>
      </trkpt>
      <trkpt lat="45.51515" lon="4.66815">
        <ele>429.38055419922</ele>
        <time>2018-10-05T14:29:32Z</time>
      </trkpt>
      <trkpt lat="45.51624" lon="4.66786">
        <ele>424.73355102539</ele>
        <time>2018-10-05T14:29:34Z</time>
      </trkpt>
      <trkpt lat="45.51658" lon="4.66775">
        <ele>422.82830810547</ele>
        <time>2018-10-05T14:30:04Z</time>
      </trkpt>
      <trkpt lat="45.51668" lon="4.66775">
        <ele>422.42669677734</ele>
        <time>2018-10-05T14:30:13Z</time>
      </trkpt>
      <trkpt lat="45.51676" lon="4.66779">
        <ele>422.39120483398</ele>
        <time>2018-10-05T14:30:16Z</time>
      </trkpt>
      <trkpt lat="45.51704" lon="4.66817">
        <ele>425.51541137695</ele>
        <time>2018-10-05T14:30:18Z</time>
      </trkpt>
      <trkpt lat="45.51736" lon="4.66875">
        <ele>428.45822143555</ele>
        <time>2018-10-05T14:30:28Z</time>
      </trkpt>
      <trkpt lat="45.51749" lon="4.66894">
        <ele>428.66455078125</ele>
        <time>2018-10-05T14:30:42Z</time>
      </trkpt>
      <trkpt lat="45.51777" lon="4.66909">
        <ele>429.67739868164</ele>
        <time>2018-10-05T14:30:47Z</time>
      </trkpt>
      <trkpt lat="45.51844" lon="4.66925">
        <ele>428.10827636719</ele>
        <time>2018-10-05T14:30:55Z</time>
      </trkpt>
      <trkpt lat="45.51844" lon="4.66925">
        <ele>428.10827636719</ele>
        <time>2018-10-05T14:31:13Z</time>
      </trkpt>
      <trkpt lat="45.51855" lon="4.66928">
        <ele>427.28387451172</ele>
        <time>2018-10-05T14:31:13Z</time>
      </trkpt>
      <trkpt lat="45.51864" lon="4.66926">
        <ele>426.88433837891</ele>
        <time>2018-10-05T14:31:16Z</time>
      </trkpt>
      <trkpt lat="45.5188" lon="4.66913">
        <ele>426.46459960938</ele>
        <time>2018-10-05T14:31:18Z</time>
      </trkpt>
      <trkpt lat="45.5197" lon="4.66783">
        <ele>420.57125854492</ele>
        <time>2018-10-05T14:31:23Z</time>
      </trkpt>
      <trkpt lat="45.51978" lon="4.66766">
        <ele>420.51177978516</ele>
        <time>2018-10-05T14:31:57Z</time>
      </trkpt>
      <trkpt lat="45.51978" lon="4.66766">
        <ele>420.51177978516</ele>
        <time>2018-10-05T14:32:01Z</time>
      </trkpt>
      <trkpt lat="45.51996" lon="4.66716">
        <ele>418.26873779297</ele>
        <time>2018-10-05T14:32:01Z</time>
      </trkpt>
      <trkpt lat="45.52011" lon="4.66654">
        <ele>417.96527099609</ele>
        <time>2018-10-05T14:32:12Z</time>
      </trkpt>
      <trkpt lat="45.5202" lon="4.6664">
        <ele>416.30737304688</ele>
        <time>2018-10-05T14:32:24Z</time>
      </trkpt>
      <trkpt lat="45.52033" lon="4.66632">
        <ele>415.03646850586</ele>
        <time>2018-10-05T14:32:28Z</time>
      </trkpt>
      <trkpt lat="45.52051" lon="4.66631">
        <ele>413.81072998047</ele>
        <time>2018-10-05T14:32:32Z</time>
      </trkpt>
      <trkpt lat="45.5206" lon="4.66627">
        <ele>412.07949829102</ele>
        <time>2018-10-05T14:32:37Z</time>
      </trkpt>
      <trkpt lat="45.52067" lon="4.66619">
        <ele>410.56506347656</ele>
        <time>2018-10-05T14:32:40Z</time>
      </trkpt>
      <trkpt lat="45.52093" lon="4.66557">
        <ele>410.71405029297</ele>
        <time>2018-10-05T14:32:42Z</time>
      </trkpt>
      <trkpt lat="45.52099" lon="4.66544">
        <ele>410.55209350586</ele>
        <time>2018-10-05T14:32:56Z</time>
      </trkpt>
      <trkpt lat="45.52116" lon="4.66498">
        <ele>410.27777099609</ele>
        <time>2018-10-05T14:32:59Z</time>
      </trkpt>
      <trkpt lat="45.52131" lon="4.66477">
        <ele>408.36376953125</ele>
        <time>2018-10-05T14:33:09Z</time>
      </trkpt>
      <trkpt lat="45.52136" lon="4.66472">
        <ele>408.28485107422</ele>
        <time>2018-10-05T14:33:15Z</time>
      </trkpt>
      <trkpt lat="45.52146" lon="4.66452">
        <ele>407.89010620117</ele>
        <time>2018-10-05T14:33:17Z</time>
      </trkpt>
      <trkpt lat="45.52167" lon="4.66418">
        <ele>407.65213012695</ele>
        <time>2018-10-05T14:33:22Z</time>
      </trkpt>
      <trkpt lat="45.52183" lon="4.66392">
        <ele>410.87274169922</ele>
        <time>2018-10-05T14:33:30Z</time>
      </trkpt>
      <trkpt lat="45.5219" lon="4.66385">
        <ele>410.83532714844</ele>
        <time>2018-10-05T14:33:36Z</time>
      </trkpt>
      <trkpt lat="45.52231" lon="4.66358">
        <ele>411.56884765625</ele>
        <time>2018-10-05T14:33:38Z</time>
      </trkpt>
      <trkpt lat="45.52251" lon="4.66336">
        <ele>410.29763793945</ele>
        <time>2018-10-05T14:33:50Z</time>
      </trkpt>
      <trkpt lat="45.52256" lon="4.66325">
        <ele>410.85238647461</ele>
        <time>2018-10-05T14:33:57Z</time>
      </trkpt>
      <trkpt lat="45.5226" lon="4.66313">
        <ele>411.31774902344</ele>
        <time>2018-10-05T14:33:59Z</time>
      </trkpt>
      <trkpt lat="45.52262" lon="4.66302">
        <ele>411.56997680664</ele>
        <time>2018-10-05T14:34:01Z</time>
      </trkpt>
      <trkpt lat="45.52262" lon="4.66295">
        <ele>411.91360473633</ele>
        <time>2018-10-05T14:34:03Z</time>
      </trkpt>
      <trkpt lat="45.52262" lon="4.66295">
        <ele>411.91360473633</ele>
        <time>2018-10-05T14:34:04Z</time>
      </trkpt>
      <trkpt lat="45.52261" lon="4.66278">
        <ele>412.64831542969</ele>
        <time>2018-10-05T14:34:04Z</time>
      </trkpt>
      <trkpt lat="45.52257" lon="4.66246">
        <ele>415.77966308594</ele>
        <time>2018-10-05T14:34:07Z</time>
      </trkpt>
      <trkpt lat="45.5226" lon="4.66212">
        <ele>416.99472045898</ele>
        <time>2018-10-05T14:34:13Z</time>
      </trkpt>
      <trkpt lat="45.5227" lon="4.66159">
        <ele>420.54235839844</ele>
        <time>2018-10-05T14:34:19Z</time>
      </trkpt>
      <trkpt lat="45.52281" lon="4.66126">
        <ele>423.01467895508</ele>
        <time>2018-10-05T14:34:29Z</time>
      </trkpt>
      <trkpt lat="45.52287" lon="4.66116">
        <ele>423.7516784668</ele>
        <time>2018-10-05T14:34:36Z</time>
      </trkpt>
      <trkpt lat="45.52296" lon="4.66098">
        <ele>424.70889282227</ele>
        <time>2018-10-05T14:34:38Z</time>
      </trkpt>
      <trkpt lat="45.52303" lon="4.66074">
        <ele>425.38040161133</ele>
        <time>2018-10-05T14:34:42Z</time>
      </trkpt>
      <trkpt lat="45.52304" lon="4.66054">
        <ele>426.64855957031</ele>
        <time>2018-10-05T14:34:47Z</time>
      </trkpt>
      <trkpt lat="45.52301" lon="4.66049">
        <ele>426.94873046875</ele>
        <time>2018-10-05T14:34:51Z</time>
      </trkpt>
      <trkpt lat="45.52299" lon="4.66045">
        <ele>427.11904907227</ele>
        <time>2018-10-05T14:34:52Z</time>
      </trkpt>
      <trkpt lat="45.52296" lon="4.66054">
        <ele>427.04071044922</ele>
        <time>2018-10-05T14:34:53Z</time>
      </trkpt>
      <trkpt lat="45.5229" lon="4.66047">
        <ele>428.1252746582</ele>
        <time>2018-10-05T14:34:55Z</time>
      </trkpt>
      <trkpt lat="45.52288" lon="4.66042">
        <ele>428.88537597656</ele>
        <time>2018-10-05T14:34:57Z</time>
      </trkpt>
      <trkpt lat="45.52285" lon="4.65992">
        <ele>433.22805786133</ele>
        <time>2018-10-05T14:34:58Z</time>
      </trkpt>
      <trkpt lat="45.5228" lon="4.65982">
        <ele>434.4739074707</ele>
        <time>2018-10-05T14:35:07Z</time>
      </trkpt>
      <trkpt lat="45.52262" lon="4.65976">
        <ele>436.19830322266</ele>
        <time>2018-10-05T14:35:09Z</time>
      </trkpt>
      <trkpt lat="45.5222" lon="4.65965">
        <ele>443.89450073242</ele>
        <time>2018-10-05T14:35:14Z</time>
      </trkpt>
      <trkpt lat="45.52207" lon="4.65953">
        <ele>445.77908325195</ele>
        <time>2018-10-05T14:35:25Z</time>
      </trkpt>
      <trkpt lat="45.52199" lon="4.65939">
        <ele>446.84362792969</ele>
        <time>2018-10-05T14:35:29Z</time>
      </trkpt>
      <trkpt lat="45.52199" lon="4.65939">
        <ele>446.84362792969</ele>
        <time>2018-10-05T14:35:32Z</time>
      </trkpt>
      <trkpt lat="45.52195" lon="4.65933">
        <ele>446.7702331543</ele>
        <time>2018-10-05T14:35:32Z</time>
      </trkpt>
      <trkpt lat="45.52194" lon="4.65924">
        <ele>445.83187866211</ele>
        <time>2018-10-05T14:35:34Z</time>
      </trkpt>
      <trkpt lat="45.52191" lon="4.65912">
        <ele>445.0749206543</ele>
        <time>2018-10-05T14:35:36Z</time>
      </trkpt>
      <trkpt lat="45.52166" lon="4.65873">
        <ele>442.57601928711</ele>
        <time>2018-10-05T14:35:38Z</time>
      </trkpt>
      <trkpt lat="45.52126" lon="4.65831">
        <ele>441.34033203125</ele>
        <time>2018-10-05T14:35:48Z</time>
      </trkpt>
      <trkpt lat="45.52083" lon="4.65803">
        <ele>440.87976074219</ele>
        <time>2018-10-05T14:36:01Z</time>
      </trkpt>
      <trkpt lat="45.52071" lon="4.65801">
        <ele>440.94985961914</ele>
        <time>2018-10-05T14:36:14Z</time>
      </trkpt>
      <trkpt lat="45.52062" lon="4.65803">
        <ele>441.95098876953</ele>
        <time>2018-10-05T14:36:17Z</time>
      </trkpt>
      <trkpt lat="45.52042" lon="4.65813">
        <ele>451.70849609375</ele>
        <time>2018-10-05T14:36:19Z</time>
      </trkpt>
      <trkpt lat="45.5204" lon="4.6582">
        <ele>453.0583190918</ele>
        <time>2018-10-05T14:36:25Z</time>
      </trkpt>
      <trkpt lat="45.52045" lon="4.65829">
        <ele>451.91943359375</ele>
        <time>2018-10-05T14:36:26Z</time>
      </trkpt>
      <trkpt lat="45.52055" lon="4.65845">
        <ele>451.01022338867</ele>
        <time>2018-10-05T14:36:28Z</time>
      </trkpt>
      <trkpt lat="45.52056" lon="4.65854">
        <ele>451.66241455078</ele>
        <time>2018-10-05T14:36:32Z</time>
      </trkpt>
      <trkpt lat="45.52046" lon="4.65879">
        <ele>456.42556762695</ele>
        <time>2018-10-05T14:36:34Z</time>
      </trkpt>
      <trkpt lat="45.52039" lon="4.65891">
        <ele>459.10968017578</ele>
        <time>2018-10-05T14:36:39Z</time>
      </trkpt>
      <trkpt lat="45.52032" lon="4.65895">
        <ele>461.12686157227</ele>
        <time>2018-10-05T14:36:42Z</time>
      </trkpt>
      <trkpt lat="45.52061" lon="4.6591">
        <ele>458.97473144531</ele>
        <time>2018-10-05T14:36:44Z</time>
      </trkpt>
      <trkpt lat="45.52111" lon="4.65926">
        <ele>457.29559326172</ele>
        <time>2018-10-05T14:36:52Z</time>
      </trkpt>
      <trkpt lat="45.52129" lon="4.65946">
        <ele>456.22698974609</ele>
        <time>2018-10-05T14:37:06Z</time>
      </trkpt>
      <trkpt lat="45.52134" lon="4.65951">
        <ele>456.23864746094</ele>
        <time>2018-10-05T14:37:12Z</time>
      </trkpt>
      <trkpt lat="45.52125" lon="4.65957">
        <ele>457.19418334961</ele>
        <time>2018-10-05T14:37:14Z</time>
      </trkpt>
      <trkpt lat="45.52072" lon="4.65982">
        <ele>464.20040893555</ele>
        <time>2018-10-05T14:37:17Z</time>
      </trkpt>
      <trkpt lat="45.52033" lon="4.65989">
        <ele>469.33410644531</ele>
        <time>2018-10-05T14:37:32Z</time>
      </trkpt>
      <trkpt lat="45.51969" lon="4.66">
        <ele>478.20806884766</ele>
        <time>2018-10-05T14:37:43Z</time>
      </trkpt>
      <trkpt lat="45.5192" lon="4.66015">
        <ele>486.50955200195</ele>
        <time>2018-10-05T14:38:00Z</time>
      </trkpt>
      <trkpt lat="45.51901" lon="4.66013">
        <ele>489.64630126953</ele>
        <time>2018-10-05T14:38:13Z</time>
      </trkpt>
      <trkpt lat="45.51832" lon="4.66009">
        <ele>499.53900146484</ele>
        <time>2018-10-05T14:38:18Z</time>
      </trkpt>
      <trkpt lat="45.51802" lon="4.66011">
        <ele>505.09002685547</ele>
        <time>2018-10-05T14:38:36Z</time>
      </trkpt>
      <trkpt lat="45.51794" lon="4.6601">
        <ele>506.92208862305</ele>
        <time>2018-10-05T14:38:44Z</time>
      </trkpt>
      <trkpt lat="45.51745" lon="4.6599">
        <ele>512.78228759766</ele>
        <time>2018-10-05T14:38:46Z</time>
      </trkpt>
      <trkpt lat="45.51714" lon="4.65985">
        <ele>516.0556640625</ele>
        <time>2018-10-05T14:39:00Z</time>
      </trkpt>
      <trkpt lat="45.51683" lon="4.65973">
        <ele>519.69329833984</ele>
        <time>2018-10-05T14:39:08Z</time>
      </trkpt>
      <trkpt lat="45.5165" lon="4.65968">
        <ele>524.25860595703</ele>
        <time>2018-10-05T14:39:17Z</time>
      </trkpt>
      <trkpt lat="45.5161" lon="4.65954">
        <ele>529.98120117188</ele>
        <time>2018-10-05T14:39:26Z</time>
      </trkpt>
      <trkpt lat="45.51598" lon="4.6594">
        <ele>531.49102783203</ele>
        <time>2018-10-05T14:39:37Z</time>
      </trkpt>
      <trkpt lat="45.51584" lon="4.65913">
        <ele>533.62512207031</ele>
        <time>2018-10-05T14:39:41Z</time>
      </trkpt>
      <trkpt lat="45.51566" lon="4.65873">
        <ele>537.42895507812</ele>
        <time>2018-10-05T14:39:47Z</time>
      </trkpt>
      <trkpt lat="45.51513" lon="4.6581">
        <ele>542.04919433594</ele>
        <time>2018-10-05T14:39:56Z</time>
      </trkpt>
      <trkpt lat="45.51476" lon="4.65777">
        <ele>545.05609130859</ele>
        <time>2018-10-05T14:40:14Z</time>
      </trkpt>
      <trkpt lat="45.51421" lon="4.6571">
        <ele>544.80145263672</ele>
        <time>2018-10-05T14:40:26Z</time>
      </trkpt>
      <trkpt lat="45.51412" lon="4.65701">
        <ele>546.29833984375</ele>
        <time>2018-10-05T14:40:45Z</time>
      </trkpt>
      <trkpt lat="45.51412" lon="4.65701">
        <ele>546.29833984375</ele>
        <time>2018-10-05T14:40:48Z</time>
      </trkpt>
      <trkpt lat="45.51383" lon="4.65682">
        <ele>548.98010253906</ele>
        <time>2018-10-05T14:40:48Z</time>
      </trkpt>
      <trkpt lat="45.51374" lon="4.65668">
        <ele>549.64166259766</ele>
        <time>2018-10-05T14:40:57Z</time>
      </trkpt>
      <trkpt lat="45.51369" lon="4.65649">
        <ele>550.13824462891</ele>
        <time>2018-10-05T14:41:01Z</time>
      </trkpt>
      <trkpt lat="45.51362" lon="4.65582">
        <ele>552.37030029297</ele>
        <time>2018-10-05T14:41:05Z</time>
      </trkpt>
      <trkpt lat="45.5136" lon="4.65544">
        <ele>555.14770507812</ele>
        <time>2018-10-05T14:41:18Z</time>
      </trkpt>
      <trkpt lat="45.51357" lon="4.65534">
        <ele>556.16564941406</ele>
        <time>2018-10-05T14:41:25Z</time>
      </trkpt>
      <trkpt lat="45.51338" lon="4.65519">
        <ele>558.33343505859</ele>
        <time>2018-10-05T14:41:27Z</time>
      </trkpt>
      <trkpt lat="45.51309" lon="4.65518">
        <ele>560.74176025391</ele>
        <time>2018-10-05T14:41:33Z</time>
      </trkpt>
      <trkpt lat="45.51293" lon="4.65513">
        <ele>564.25256347656</ele>
        <time>2018-10-05T14:41:41Z</time>
      </trkpt>
      <trkpt lat="45.51269" lon="4.65493">
        <ele>569.06219482422</ele>
        <time>2018-10-05T14:41:45Z</time>
      </trkpt>
      <trkpt lat="45.51237" lon="4.65469">
        <ele>570.49481201172</ele>
        <time>2018-10-05T14:41:52Z</time>
      </trkpt>
      <trkpt lat="45.51219" lon="4.65447">
        <ele>570.87945556641</ele>
        <time>2018-10-05T14:42:02Z</time>
      </trkpt>
      <trkpt lat="45.51201" lon="4.65417">
        <ele>571.32073974609</ele>
        <time>2018-10-05T14:42:08Z</time>
      </trkpt>
      <trkpt lat="45.51201" lon="4.65417">
        <ele>571.32073974609</ele>
        <time>2018-10-05T14:42:15Z</time>
      </trkpt>
      <trkpt lat="45.51179" lon="4.6538">
        <ele>573.85015869141</ele>
        <time>2018-10-05T14:42:15Z</time>
      </trkpt>
      <trkpt lat="45.51162" lon="4.65342">
        <ele>579.56500244141</ele>
        <time>2018-10-05T14:42:24Z</time>
      </trkpt>
      <trkpt lat="45.51157" lon="4.65332">
        <ele>581.37908935547</ele>
        <time>2018-10-05T14:42:32Z</time>
      </trkpt>
      <trkpt lat="45.51148" lon="4.65326">
        <ele>582.31585693359</ele>
        <time>2018-10-05T14:42:34Z</time>
      </trkpt>
      <trkpt lat="45.51116" lon="4.65318">
        <ele>585.41833496094</ele>
        <time>2018-10-05T14:42:37Z</time>
      </trkpt>
      <trkpt lat="45.51086" lon="4.65313">
        <ele>585.96612548828</ele>
        <time>2018-10-05T14:42:46Z</time>
      </trkpt>
      <trkpt lat="45.51048" lon="4.65302">
        <ele>587.78253173828</ele>
        <time>2018-10-05T14:42:54Z</time>
      </trkpt>
      <trkpt lat="45.51012" lon="4.65291">
        <ele>586.71282958984</ele>
        <time>2018-10-05T14:43:04Z</time>
      </trkpt>
      <trkpt lat="45.50968" lon="4.65273">
        <ele>586.18145751953</ele>
        <time>2018-10-05T14:43:14Z</time>
      </trkpt>
      <trkpt lat="45.5094" lon="4.65261">
        <ele>581.62084960938</ele>
        <time>2018-10-05T14:43:26Z</time>
      </trkpt>
      <trkpt lat="45.50914" lon="4.65247">
        <ele>579.99084472656</ele>
        <time>2018-10-05T14:43:34Z</time>
      </trkpt>
      <trkpt lat="45.50908" lon="4.65239">
        <ele>581.89093017578</ele>
        <time>2018-10-05T14:43:41Z</time>
      </trkpt>
      <trkpt lat="45.50878" lon="4.65218">
        <ele>586.80096435547</ele>
        <time>2018-10-05T14:43:43Z</time>
      </trkpt>
      <trkpt lat="45.50848" lon="4.65202">
        <ele>589.56915283203</ele>
        <time>2018-10-05T14:43:52Z</time>
      </trkpt>
      <trkpt lat="45.50813" lon="4.65198">
        <ele>590.19085693359</ele>
        <time>2018-10-05T14:44:01Z</time>
      </trkpt>
      <trkpt lat="45.50798" lon="4.65203">
        <ele>589.06243896484</ele>
        <time>2018-10-05T14:44:10Z</time>
      </trkpt>
      <trkpt lat="45.50779" lon="4.65209">
        <ele>588.51239013672</ele>
        <time>2018-10-05T14:44:14Z</time>
      </trkpt>
      <trkpt lat="45.50755" lon="4.65209">
        <ele>588.44256591797</ele>
        <time>2018-10-05T14:44:19Z</time>
      </trkpt>
      <trkpt lat="45.50738" lon="4.65209">
        <ele>590.65112304688</ele>
        <time>2018-10-05T14:44:25Z</time>
      </trkpt>
      <trkpt lat="45.50738" lon="4.65209">
        <ele>590.65112304688</ele>
        <time>2018-10-05T14:44:30Z</time>
      </trkpt>
      <trkpt lat="45.50712" lon="4.6521">
        <ele>593.38708496094</ele>
        <time>2018-10-05T14:44:30Z</time>
      </trkpt>
      <trkpt lat="45.507" lon="4.65213">
        <ele>595.26416015625</ele>
        <time>2018-10-05T14:44:37Z</time>
      </trkpt>
      <trkpt lat="45.50645" lon="4.65235">
        <ele>598.51446533203</ele>
        <time>2018-10-05T14:44:40Z</time>
      </trkpt>
      <trkpt lat="45.50634" lon="4.65243">
        <ele>599.13891601562</ele>
        <time>2018-10-05T14:44:55Z</time>
      </trkpt>
      <trkpt lat="45.50609" lon="4.6525">
        <ele>598.50109863281</ele>
        <time>2018-10-05T14:44:58Z</time>
      </trkpt>
      <trkpt lat="45.50586" lon="4.65262">
        <ele>596.92504882812</ele>
        <time>2018-10-05T14:45:05Z</time>
      </trkpt>
      <trkpt lat="45.50564" lon="4.65279">
        <ele>594.41265869141</ele>
        <time>2018-10-05T14:45:12Z</time>
      </trkpt>
      <trkpt lat="45.50545" lon="4.65289">
        <ele>591.46948242188</ele>
        <time>2018-10-05T14:45:19Z</time>
      </trkpt>
      <trkpt lat="45.50525" lon="4.6529">
        <ele>590.80963134766</ele>
        <time>2018-10-05T14:45:24Z</time>
      </trkpt>
      <trkpt lat="45.50516" lon="4.65289">
        <ele>590.25329589844</ele>
        <time>2018-10-05T14:45:29Z</time>
      </trkpt>
      <trkpt lat="45.50506" lon="4.65282">
        <ele>589.36260986328</ele>
        <time>2018-10-05T14:45:31Z</time>
      </trkpt>
      <trkpt lat="45.505" lon="4.65279">
        <ele>588.87017822266</ele>
        <time>2018-10-05T14:45:34Z</time>
      </trkpt>
      <trkpt lat="45.50472" lon="4.6528">
        <ele>584.2294921875</ele>
        <time>2018-10-05T14:45:36Z</time>
      </trkpt>
      <trkpt lat="45.50427" lon="4.65289">
        <ele>580.89898681641</ele>
        <time>2018-10-05T14:45:43Z</time>
      </trkpt>
      <trkpt lat="45.50375" lon="4.65304">
        <ele>583.77056884766</ele>
        <time>2018-10-05T14:45:55Z</time>
      </trkpt>
      <trkpt lat="45.50375" lon="4.65304">
        <ele>583.77056884766</ele>
        <time>2018-10-05T14:46:09Z</time>
      </trkpt>
      <trkpt lat="45.50358" lon="4.6531">
        <ele>584.35125732422</ele>
        <time>2018-10-05T14:46:09Z</time>
      </trkpt>
      <trkpt lat="45.50303" lon="4.65366">
        <ele>588.35028076172</ele>
        <time>2018-10-05T14:46:14Z</time>
      </trkpt>
      <trkpt lat="45.50263" lon="4.65411">
        <ele>593.91168212891</ele>
        <time>2018-10-05T14:46:32Z</time>
      </trkpt>
      <trkpt lat="45.50225" lon="4.65459">
        <ele>596.74890136719</ele>
        <time>2018-10-05T14:46:46Z</time>
      </trkpt>
      <trkpt lat="45.5015" lon="4.65539">
        <ele>603.68695068359</ele>
        <time>2018-10-05T14:47:00Z</time>
      </trkpt>
      <trkpt lat="45.50086" lon="4.65573">
        <ele>611.63317871094</ele>
        <time>2018-10-05T14:47:25Z</time>
      </trkpt>
      <trkpt lat="45.50067" lon="4.65581">
        <ele>612.04302978516</ele>
        <time>2018-10-05T14:47:43Z</time>
      </trkpt>
      <trkpt lat="45.50041" lon="4.65588">
        <ele>612.58795166016</ele>
        <time>2018-10-05T14:47:48Z</time>
      </trkpt>
      <trkpt lat="45.5" lon="4.65594">
        <ele>615.4697265625</ele>
        <time>2018-10-05T14:47:55Z</time>
      </trkpt>
      <trkpt lat="45.49991" lon="4.65598">
        <ele>615.244140625</ele>
        <time>2018-10-05T14:48:06Z</time>
      </trkpt>
      <trkpt lat="45.49972" lon="4.65614">
        <ele>616.16857910156</ele>
        <time>2018-10-05T14:48:09Z</time>
      </trkpt>
      <trkpt lat="45.49966" lon="4.65625">
        <ele>615.61175537109</ele>
        <time>2018-10-05T14:48:15Z</time>
      </trkpt>
      <trkpt lat="45.49954" lon="4.65649">
        <ele>612.82720947266</ele>
        <time>2018-10-05T14:48:18Z</time>
      </trkpt>
      <trkpt lat="45.49915" lon="4.65706">
        <ele>612.51141357422</ele>
        <time>2018-10-05T14:48:24Z</time>
      </trkpt>
      <trkpt lat="45.49885" lon="4.65741">
        <ele>611.21380615234</ele>
        <time>2018-10-05T14:48:39Z</time>
      </trkpt>
      <trkpt lat="45.49874" lon="4.65756">
        <ele>610.98419189453</ele>
        <time>2018-10-05T14:48:49Z</time>
      </trkpt>
      <trkpt lat="45.4987" lon="4.65763">
        <ele>611.03918457031</ele>
        <time>2018-10-05T14:48:53Z</time>
      </trkpt>
      <trkpt lat="45.49871" lon="4.65741">
        <ele>612.25299072266</ele>
        <time>2018-10-05T14:48:55Z</time>
      </trkpt>
      <trkpt lat="45.49864" lon="4.65722">
        <ele>614.00122070312</ele>
        <time>2018-10-05T14:48:59Z</time>
      </trkpt>
      <trkpt lat="45.49848" lon="4.65695">
        <ele>618.43768310547</ele>
        <time>2018-10-05T14:49:03Z</time>
      </trkpt>
      <trkpt lat="45.49833" lon="4.65661">
        <ele>622.64703369141</ele>
        <time>2018-10-05T14:49:10Z</time>
      </trkpt>
      <trkpt lat="45.49809" lon="4.65601">
        <ele>628.26904296875</ele>
        <time>2018-10-05T14:49:18Z</time>
      </trkpt>
      <trkpt lat="45.49806" lon="4.6559">
        <ele>629.43908691406</ele>
        <time>2018-10-05T14:49:31Z</time>
      </trkpt>
      <trkpt lat="45.49807" lon="4.65559">
        <ele>633.560546875</ele>
        <time>2018-10-05T14:49:33Z</time>
      </trkpt>
      <trkpt lat="45.49826" lon="4.65495">
        <ele>639.30200195312</ele>
        <time>2018-10-05T14:49:39Z</time>
      </trkpt>
      <trkpt lat="45.49832" lon="4.6546">
        <ele>641.21520996094</ele>
        <time>2018-10-05T14:49:52Z</time>
      </trkpt>
      <trkpt lat="45.49829" lon="4.65449">
        <ele>641.70404052734</ele>
        <time>2018-10-05T14:49:59Z</time>
      </trkpt>
      <trkpt lat="45.49817" lon="4.65341">
        <ele>645.74578857422</ele>
        <time>2018-10-05T14:50:01Z</time>
      </trkpt>
      <trkpt lat="45.49811" lon="4.65296">
        <ele>648.19757080078</ele>
        <time>2018-10-05T14:50:21Z</time>
      </trkpt>
      <trkpt lat="45.49804" lon="4.65276">
        <ele>649.15899658203</ele>
        <time>2018-10-05T14:50:30Z</time>
      </trkpt>
      <trkpt lat="45.49785" lon="4.65231">
        <ele>650.14556884766</ele>
        <time>2018-10-05T14:50:34Z</time>
      </trkpt>
      <trkpt lat="45.49775" lon="4.65206">
        <ele>650.11602783203</ele>
        <time>2018-10-05T14:50:44Z</time>
      </trkpt>
      <trkpt lat="45.49768" lon="4.6518">
        <ele>648.67303466797</ele>
        <time>2018-10-05T14:50:49Z</time>
      </trkpt>
      <trkpt lat="45.49736" lon="4.65059">
        <ele>644.64111328125</ele>
        <time>2018-10-05T14:50:54Z</time>
      </trkpt>
      <trkpt lat="45.49719" lon="4.64995">
        <ele>647.51989746094</ele>
        <time>2018-10-05T14:51:18Z</time>
      </trkpt>
      <trkpt lat="45.49715" lon="4.64985">
        <ele>648.69500732422</ele>
        <time>2018-10-05T14:51:31Z</time>
      </trkpt>
      <trkpt lat="45.49713" lon="4.6498">
        <ele>649.22613525391</ele>
        <time>2018-10-05T14:51:33Z</time>
      </trkpt>
      <trkpt lat="45.4971" lon="4.64918">
        <ele>654.29437255859</ele>
        <time>2018-10-05T14:51:34Z</time>
      </trkpt>
      <trkpt lat="45.49701" lon="4.64874">
        <ele>655.21026611328</ele>
        <time>2018-10-05T14:51:46Z</time>
      </trkpt>
      <trkpt lat="45.49691" lon="4.64835">
        <ele>655.43255615234</ele>
        <time>2018-10-05T14:51:55Z</time>
      </trkpt>
      <trkpt lat="45.49674" lon="4.64777">
        <ele>655.47399902344</ele>
        <time>2018-10-05T14:52:03Z</time>
      </trkpt>
      <trkpt lat="45.49665" lon="4.64759">
        <ele>655.7705078125</ele>
        <time>2018-10-05T14:52:15Z</time>
      </trkpt>
      <trkpt lat="45.4966" lon="4.64736">
        <ele>656.53973388672</ele>
        <time>2018-10-05T14:52:19Z</time>
      </trkpt>
      <trkpt lat="45.49654" lon="4.64713">
        <ele>656.16137695312</ele>
        <time>2018-10-05T14:52:24Z</time>
      </trkpt>
      <trkpt lat="45.49647" lon="4.6472">
        <ele>656.91589355469</ele>
        <time>2018-10-05T14:52:29Z</time>
      </trkpt>
      <trkpt lat="45.49633" lon="4.64732">
        <ele>658.59851074219</ele>
        <time>2018-10-05T14:52:31Z</time>
      </trkpt>
      <trkpt lat="45.4961" lon="4.64742">
        <ele>657.42022705078</ele>
        <time>2018-10-05T14:52:35Z</time>
      </trkpt>
      <trkpt lat="45.49602" lon="4.64746">
        <ele>656.12860107422</ele>
        <time>2018-10-05T14:52:41Z</time>
      </trkpt>
      <trkpt lat="45.49594" lon="4.64751">
        <ele>653.84124755859</ele>
        <time>2018-10-05T14:52:43Z</time>
      </trkpt>
      <trkpt lat="45.49585" lon="4.64754">
        <ele>652.96673583984</ele>
        <time>2018-10-05T14:52:45Z</time>
      </trkpt>
      <trkpt lat="45.49576" lon="4.64752">
        <ele>650.99621582031</ele>
        <time>2018-10-05T14:52:47Z</time>
      </trkpt>
      <trkpt lat="45.49565" lon="4.64746">
        <ele>649.38720703125</ele>
        <time>2018-10-05T14:52:49Z</time>
      </trkpt>
      <trkpt lat="45.4955" lon="4.64737">
        <ele>648.39050292969</ele>
        <time>2018-10-05T14:52:52Z</time>
      </trkpt>
      <trkpt lat="45.49528" lon="4.64716">
        <ele>643.48608398438</ele>
        <time>2018-10-05T14:52:56Z</time>
      </trkpt>
      <trkpt lat="45.49494" lon="4.64679">
        <ele>633.65277099609</ele>
        <time>2018-10-05T14:53:03Z</time>
      </trkpt>
      <trkpt lat="45.49475" lon="4.64664">
        <ele>627.80438232422</ele>
        <time>2018-10-05T14:53:14Z</time>
      </trkpt>
      <trkpt lat="45.49467" lon="4.64662">
        <ele>627.06628417969</ele>
        <time>2018-10-05T14:53:20Z</time>
      </trkpt>
      <trkpt lat="45.49447" lon="4.64661">
        <ele>624.76470947266</ele>
        <time>2018-10-05T14:53:22Z</time>
      </trkpt>
      <trkpt lat="45.49393" lon="4.64658">
        <ele>610.43011474609</ele>
        <time>2018-10-05T14:53:27Z</time>
      </trkpt>
      <trkpt lat="45.49347" lon="4.6465">
        <ele>597.84161376953</ele>
        <time>2018-10-05T14:53:41Z</time>
      </trkpt>
      <trkpt lat="45.49334" lon="4.6465">
        <ele>596.13916015625</ele>
        <time>2018-10-05T14:53:53Z</time>
      </trkpt>
      <trkpt lat="45.49307" lon="4.64657">
        <ele>591.94879150391</ele>
        <time>2018-10-05T14:53:56Z</time>
      </trkpt>
      <trkpt lat="45.49289" lon="4.64661">
        <ele>589.18823242188</ele>
        <time>2018-10-05T14:54:03Z</time>
      </trkpt>
      <trkpt lat="45.49235" lon="4.64667">
        <ele>585.63421630859</ele>
        <time>2018-10-05T14:54:08Z</time>
      </trkpt>
      <trkpt lat="45.49228" lon="4.64649">
        <ele>584.37347412109</ele>
        <time>2018-10-05T14:54:22Z</time>
      </trkpt>
      <trkpt lat="45.49228" lon="4.64649">
        <ele>584.37347412109</ele>
        <time>2018-10-05T14:54:26Z</time>
      </trkpt>
      <trkpt lat="45.49215" lon="4.64597">
        <ele>577.46209716797</ele>
        <time>2018-10-05T14:54:26Z</time>
      </trkpt>
      <trkpt lat="45.49208" lon="4.64577">
        <ele>574.9501953125</ele>
        <time>2018-10-05T14:54:36Z</time>
      </trkpt>
      <trkpt lat="45.49182" lon="4.64557">
        <ele>573.78741455078</ele>
        <time>2018-10-05T14:54:40Z</time>
      </trkpt>
      <trkpt lat="45.49162" lon="4.64541">
        <ele>568.94964599609</ele>
        <time>2018-10-05T14:54:48Z</time>
      </trkpt>
      <trkpt lat="45.49142" lon="4.6452">
        <ele>567.70574951172</ele>
        <time>2018-10-05T14:54:54Z</time>
      </trkpt>
      <trkpt lat="45.49133" lon="4.64508">
        <ele>565.90045166016</ele>
        <time>2018-10-05T14:55:01Z</time>
      </trkpt>
      <trkpt lat="45.49103" lon="4.64457">
        <ele>557.02099609375</ele>
        <time>2018-10-05T14:55:04Z</time>
      </trkpt>
      <trkpt lat="45.49089" lon="4.64432">
        <ele>552.67687988281</ele>
        <time>2018-10-05T14:55:16Z</time>
      </trkpt>
      <trkpt lat="45.49085" lon="4.64418">
        <ele>549.85119628906</ele>
        <time>2018-10-05T14:55:22Z</time>
      </trkpt>
      <trkpt lat="45.49081" lon="4.64397">
        <ele>545.51403808594</ele>
        <time>2018-10-05T14:55:25Z</time>
      </trkpt>
      <trkpt lat="45.4908" lon="4.64361">
        <ele>538.88897705078</ele>
        <time>2018-10-05T14:55:29Z</time>
      </trkpt>
      <trkpt lat="45.49071" lon="4.6432">
        <ele>531.31005859375</ele>
        <time>2018-10-05T14:55:36Z</time>
      </trkpt>
      <trkpt lat="45.49051" lon="4.64252">
        <ele>518.45220947266</ele>
        <time>2018-10-05T14:55:44Z</time>
      </trkpt>
      <trkpt lat="45.49044" lon="4.64243">
        <ele>518.01947021484</ele>
        <time>2018-10-05T14:55:58Z</time>
      </trkpt>
      <trkpt lat="45.49031" lon="4.64235">
        <ele>515.53790283203</ele>
        <time>2018-10-05T14:56:01Z</time>
      </trkpt>
      <trkpt lat="45.49011" lon="4.6423">
        <ele>516.38873291016</ele>
        <time>2018-10-05T14:56:05Z</time>
      </trkpt>
      <trkpt lat="45.49004" lon="4.64226">
        <ele>514.13262939453</ele>
        <time>2018-10-05T14:56:10Z</time>
      </trkpt>
      <trkpt lat="45.48913" lon="4.64129">
        <ele>509.77752685547</ele>
        <time>2018-10-05T14:56:12Z</time>
      </trkpt>
      <trkpt lat="45.48873" lon="4.64091">
        <ele>508.3251953125</ele>
        <time>2018-10-05T14:56:42Z</time>
      </trkpt>
      <trkpt lat="45.48856" lon="4.6407">
        <ele>505.83752441406</ele>
        <time>2018-10-05T14:56:55Z</time>
      </trkpt>
      <trkpt lat="45.4884" lon="4.64054">
        <ele>502.62762451172</ele>
        <time>2018-10-05T14:57:01Z</time>
      </trkpt>
      <trkpt lat="45.4883" lon="4.64046">
        <ele>501.34985351562</ele>
        <time>2018-10-05T14:57:06Z</time>
      </trkpt>
      <trkpt lat="45.48809" lon="4.64036">
        <ele>499.49771118164</ele>
        <time>2018-10-05T14:57:09Z</time>
      </trkpt>
      <trkpt lat="45.48751" lon="4.6401">
        <ele>492.25094604492</ele>
        <time>2018-10-05T14:57:15Z</time>
      </trkpt>
      <trkpt lat="45.48716" lon="4.63998">
        <ele>487.49859619141</ele>
        <time>2018-10-05T14:57:31Z</time>
      </trkpt>
      <trkpt lat="45.48697" lon="4.64047">
        <ele>490.97503662109</ele>
        <time>2018-10-05T14:57:41Z</time>
      </trkpt>
      <trkpt lat="45.48684" lon="4.64086">
        <ele>493.00946044922</ele>
        <time>2018-10-05T14:57:51Z</time>
      </trkpt>
      <trkpt lat="45.4868" lon="4.6412">
        <ele>494.62640380859</ele>
        <time>2018-10-05T14:57:59Z</time>
      </trkpt>
      <trkpt lat="45.48675" lon="4.64157">
        <ele>496.07339477539</ele>
        <time>2018-10-05T14:58:05Z</time>
      </trkpt>
      <trkpt lat="45.48661" lon="4.64235">
        <ele>500.49029541016</ele>
        <time>2018-10-05T14:58:12Z</time>
      </trkpt>
      <trkpt lat="45.48651" lon="4.64285">
        <ele>502.90451049805</ele>
        <time>2018-10-05T14:58:27Z</time>
      </trkpt>
      <trkpt lat="45.48643" lon="4.64305">
        <ele>503.2405090332</ele>
        <time>2018-10-05T14:58:37Z</time>
      </trkpt>
      <trkpt lat="45.48631" lon="4.6432">
        <ele>504.71057128906</ele>
        <time>2018-10-05T14:58:41Z</time>
      </trkpt>
      <trkpt lat="45.4863" lon="4.6432">
        <ele>504.63348388672</ele>
        <time>2018-10-05T14:58:45Z</time>
      </trkpt>
      <trkpt lat="45.4863" lon="4.6432">
        <ele>504.63348388672</ele>
        <time>2018-10-05T14:58:45Z</time>
      </trkpt>
      <trkpt lat="45.48616" lon="4.64329">
        <ele>506.03131103516</ele>
        <time>2018-10-05T14:58:45Z</time>
      </trkpt>
      <trkpt lat="45.48602" lon="4.64337">
        <ele>507.25338745117</ele>
        <time>2018-10-05T14:58:49Z</time>
      </trkpt>
      <trkpt lat="45.48592" lon="4.64335">
        <ele>506.61483764648</ele>
        <time>2018-10-05T14:58:53Z</time>
      </trkpt>
      <trkpt lat="45.48575" lon="4.64337">
        <ele>506.41461181641</ele>
        <time>2018-10-05T14:58:56Z</time>
      </trkpt>
      <trkpt lat="45.4855" lon="4.64345">
        <ele>506.50204467773</ele>
        <time>2018-10-05T14:59:01Z</time>
      </trkpt>
      <trkpt lat="45.48497" lon="4.64367">
        <ele>501.86392211914</ele>
        <time>2018-10-05T14:59:08Z</time>
      </trkpt>
      <trkpt lat="45.48476" lon="4.6438">
        <ele>501.06665039062</ele>
        <time>2018-10-05T14:59:23Z</time>
      </trkpt>
      <trkpt lat="45.48464" lon="4.64387">
        <ele>500.95989990234</ele>
        <time>2018-10-05T14:59:29Z</time>
      </trkpt>
      <trkpt lat="45.4839" lon="4.6444">
        <ele>494.0380859375</ele>
        <time>2018-10-05T14:59:32Z</time>
      </trkpt>
      <trkpt lat="45.48373" lon="4.64457">
        <ele>492.37182617188</ele>
        <time>2018-10-05T14:59:54Z</time>
      </trkpt>
      <trkpt lat="45.48356" lon="4.64482">
        <ele>491.14779663086</ele>
        <time>2018-10-05T15:00:00Z</time>
      </trkpt>
      <trkpt lat="45.48335" lon="4.64525">
        <ele>486.99862670898</ele>
        <time>2018-10-05T15:00:07Z</time>
      </trkpt>
      <trkpt lat="45.48332" lon="4.64548">
        <ele>485.40222167969</ele>
        <time>2018-10-05T15:00:17Z</time>
      </trkpt>
      <trkpt lat="45.48336" lon="4.6457">
        <ele>484.7890625</ele>
        <time>2018-10-05T15:00:21Z</time>
      </trkpt>
      <trkpt lat="45.48349" lon="4.64593">
        <ele>485.82302856445</ele>
        <time>2018-10-05T15:00:25Z</time>
      </trkpt>
      <trkpt lat="45.48352" lon="4.64605">
        <ele>488.03985595703</ele>
        <time>2018-10-05T15:00:31Z</time>
      </trkpt>
      <trkpt lat="45.48349" lon="4.64612">
        <ele>490.26065063477</ele>
        <time>2018-10-05T15:00:33Z</time>
      </trkpt>
      <trkpt lat="45.48316" lon="4.64664">
        <ele>486.64041137695</ele>
        <time>2018-10-05T15:00:35Z</time>
      </trkpt>
      <trkpt lat="45.48293" lon="4.64714">
        <ele>481.99487304688</ele>
        <time>2018-10-05T15:00:48Z</time>
      </trkpt>
      <trkpt lat="45.48274" lon="4.64782">
        <ele>482.73480224609</ele>
        <time>2018-10-05T15:00:59Z</time>
      </trkpt>
      <trkpt lat="45.48273" lon="4.64802">
        <ele>482.49847412109</ele>
        <time>2018-10-05T15:01:13Z</time>
      </trkpt>
      <trkpt lat="45.48276" lon="4.64823">
        <ele>481.89315795898</ele>
        <time>2018-10-05T15:01:17Z</time>
      </trkpt>
      <trkpt lat="45.48285" lon="4.64861">
        <ele>482.74487304688</ele>
        <time>2018-10-05T15:01:21Z</time>
      </trkpt>
      <trkpt lat="45.4829" lon="4.64909">
        <ele>480.39208984375</ele>
        <time>2018-10-05T15:01:29Z</time>
      </trkpt>
      <trkpt lat="45.4828" lon="4.64903">
        <ele>478.92892456055</ele>
        <time>2018-10-05T15:01:38Z</time>
      </trkpt>
      <trkpt lat="45.4828" lon="4.64903">
        <ele>478.92892456055</ele>
        <time>2018-10-05T15:01:41Z</time>
      </trkpt>
      <trkpt lat="45.48253" lon="4.64887">
        <ele>473.9938659668</ele>
        <time>2018-10-05T15:01:41Z</time>
      </trkpt>
      <trkpt lat="45.4824" lon="4.64883">
        <ele>472.0244140625</ele>
        <time>2018-10-05T15:01:49Z</time>
      </trkpt>
      <trkpt lat="45.48188" lon="4.64871">
        <ele>464.37908935547</ele>
        <time>2018-10-05T15:01:53Z</time>
      </trkpt>
      <trkpt lat="45.48179" lon="4.64868">
        <ele>463.71459960938</ele>
        <time>2018-10-05T15:02:07Z</time>
      </trkpt>
      <trkpt lat="45.48161" lon="4.64858">
        <ele>461.78826904297</ele>
        <time>2018-10-05T15:02:09Z</time>
      </trkpt>
      <trkpt lat="45.48143" lon="4.64845">
        <ele>460.49499511719</ele>
        <time>2018-10-05T15:02:14Z</time>
      </trkpt>
      <trkpt lat="45.48122" lon="4.6481">
        <ele>456.38980102539</ele>
        <time>2018-10-05T15:02:19Z</time>
      </trkpt>
      <trkpt lat="45.48108" lon="4.64781">
        <ele>453.63235473633</ele>
        <time>2018-10-05T15:02:28Z</time>
      </trkpt>
      <trkpt lat="45.48098" lon="4.64755">
        <ele>449.16366577148</ele>
        <time>2018-10-05T15:02:35Z</time>
      </trkpt>
      <trkpt lat="45.48092" lon="4.64749">
        <ele>448.19250488281</ele>
        <time>2018-10-05T15:02:41Z</time>
      </trkpt>
      <trkpt lat="45.48078" lon="4.64746">
        <ele>444.56091308594</ele>
        <time>2018-10-05T15:02:43Z</time>
      </trkpt>
      <trkpt lat="45.48064" lon="4.64748">
        <ele>442.32635498047</ele>
        <time>2018-10-05T15:02:47Z</time>
      </trkpt>
      <trkpt lat="45.48059" lon="4.6475">
        <ele>441.68716430664</ele>
        <time>2018-10-05T15:02:51Z</time>
      </trkpt>
      <trkpt lat="45.48043" lon="4.64763">
        <ele>438.130859375</ele>
        <time>2018-10-05T15:02:52Z</time>
      </trkpt>
      <trkpt lat="45.48028" lon="4.64784">
        <ele>433.24563598633</ele>
        <time>2018-10-05T15:02:57Z</time>
      </trkpt>
      <trkpt lat="45.48017" lon="4.64808">
        <ele>431.22622680664</ele>
        <time>2018-10-05T15:03:03Z</time>
      </trkpt>
      <trkpt lat="45.48012" lon="4.64824">
        <ele>429.03942871094</ele>
        <time>2018-10-05T15:03:08Z</time>
      </trkpt>
      <trkpt lat="45.48013" lon="4.64847">
        <ele>428.19454956055</ele>
        <time>2018-10-05T15:03:11Z</time>
      </trkpt>
      <trkpt lat="45.48012" lon="4.64856">
        <ele>428.02972412109</ele>
        <time>2018-10-05T15:03:15Z</time>
      </trkpt>
      <trkpt lat="45.48009" lon="4.64858">
        <ele>427.41357421875</ele>
        <time>2018-10-05T15:03:17Z</time>
      </trkpt>
      <trkpt lat="45.48005" lon="4.64853">
        <ele>426.80819702148</ele>
        <time>2018-10-05T15:03:18Z</time>
      </trkpt>
      <trkpt lat="45.47997" lon="4.64826">
        <ele>424.61776733398</ele>
        <time>2018-10-05T15:03:19Z</time>
      </trkpt>
      <trkpt lat="45.47992" lon="4.64801">
        <ele>422.17138671875</ele>
        <time>2018-10-05T15:03:24Z</time>
      </trkpt>
      <trkpt lat="45.47993" lon="4.64784">
        <ele>421.20693969727</ele>
        <time>2018-10-05T15:03:29Z</time>
      </trkpt>
    </trkseg>
  </trk>
</gpx>